createdAt,value
2019-03-22T00:01:11.250Z,100319.45
2019-03-22T00:03:42.534Z,100314.74
2019-03-22T00:06:13.933Z,100319.52
2019-03-22T00:08:45.387Z,100310.31
2019-03-22T00:11:16.737Z,100305.58
2019-03-22T00:13:48.145Z,100309.28
2019-03-22T00:16:19.500Z,100310.53
2019-03-22T00:18:50.822Z,100313.48
2019-03-22T00:21:22.189Z,100305.86
2019-03-22T00:23:53.562Z,100304.19
2019-03-22T00:26:25.023Z,100304.95
2019-03-22T00:28:56.410Z,100301.12
2019-03-22T00:31:27.740Z,100303.06
2019-03-22T00:33:59.107Z,100312.83
2019-03-22T00:36:30.428Z,100315.39
2019-03-22T00:39:01.830Z,100307.55
2019-03-22T00:41:34.656Z,100305.37
2019-03-22T00:44:05.935Z,100306.90
2019-03-22T00:46:37.255Z,100306.77
2019-03-22T00:49:08.652Z,100298.95
2019-03-22T00:51:41.084Z,100297.49
2019-03-22T00:54:12.374Z,100294.56
2019-03-22T00:56:43.631Z,100302.91
2019-03-22T00:59:14.979Z,100309.35
2019-03-22T01:01:46.270Z,100304.44
2019-03-22T01:04:17.669Z,100304.63
2019-03-22T01:06:49.001Z,100306.67
2019-03-22T01:09:20.259Z,100313.59
2019-03-22T01:11:51.594Z,100301.64
2019-03-22T01:14:23.078Z,100301.31
2019-03-22T01:16:54.468Z,100298.48
2019-03-22T01:19:25.684Z,100291.19
2019-03-22T01:21:57.019Z,100295.14
2019-03-22T01:24:28.259Z,100292.28
2019-03-22T01:26:59.580Z,100291.17
2019-03-22T01:29:32.135Z,100290.66
2019-03-22T01:32:03.382Z,100292.33
2019-03-22T01:34:34.819Z,100287.82
2019-03-22T01:37:07.421Z,100284.14
2019-03-22T01:39:38.644Z,100275.56
2019-03-22T01:42:09.964Z,100285.44
2019-03-22T01:44:41.215Z,100284.78
2019-03-22T01:47:12.470Z,100282.68
2019-03-22T01:49:43.867Z,100275.66
2019-03-22T01:52:15.264Z,100274.67
2019-03-22T01:54:46.526Z,100272.03
2019-03-22T01:57:17.794Z,100277.33
2019-03-22T01:59:49.244Z,100278.69
2019-03-22T02:02:20.632Z,100274.59
2019-03-22T02:04:53.090Z,100270.23
2019-03-22T02:07:24.335Z,100269.42
2019-03-22T02:09:55.828Z,100274.67
2019-03-22T02:12:27.127Z,100273.66
2019-03-22T02:14:58.468Z,100269.22
2019-03-22T02:17:29.837Z,100269.30
2019-03-22T02:20:02.193Z,100271.42
2019-03-22T02:22:33.461Z,100271.58
2019-03-22T02:25:06.191Z,100274.40
2019-03-22T02:27:37.673Z,100275.77
2019-03-22T02:30:11.320Z,100269.73
2019-03-22T02:32:42.723Z,100271.50
2019-03-22T02:35:27.565Z,100270.75
2019-03-22T02:37:47.141Z,100271.16
2019-03-22T02:40:18.491Z,100263.19
2019-03-22T02:42:49.812Z,100276.70
2019-03-22T02:45:21.145Z,100272.84
2019-03-22T02:47:54.024Z,100267.63
2019-03-22T02:50:25.293Z,100272.23
2019-03-22T02:52:56.650Z,100274.55
2019-03-22T02:55:28.088Z,100268.24
2019-03-22T02:57:59.447Z,100264.66
2019-03-22T03:00:30.708Z,100251.95
2019-03-22T03:03:02.048Z,100253.95
2019-03-22T03:05:33.363Z,100253.34
2019-03-22T03:08:04.714Z,100251.22
2019-03-22T03:10:36.028Z,100250.92
2019-03-22T03:13:07.453Z,100253.41
2019-03-22T03:15:38.745Z,100250.94
2019-03-22T03:18:10.066Z,100249.73
2019-03-22T03:20:41.529Z,100252.41
2019-03-22T03:23:12.850Z,100248.02
2019-03-22T03:25:44.204Z,100242.94
2019-03-22T03:28:15.534Z,100249.97
2019-03-22T03:30:46.807Z,100246.44
2019-03-22T03:33:18.056Z,100248.73
2019-03-22T03:35:49.338Z,100245.73
2019-03-22T03:38:20.621Z,100249.47
2019-03-22T03:40:52.149Z,100235.94
2019-03-22T03:43:24.494Z,100235.36
2019-03-22T03:45:55.810Z,100241.11
2019-03-22T03:48:27.148Z,100233.78
2019-03-22T03:50:58.485Z,100239.92
2019-03-22T03:53:29.930Z,100242.12
2019-03-22T03:56:01.229Z,100228.63
2019-03-22T03:58:32.525Z,100232.78
2019-03-22T04:01:03.770Z,100233.22
2019-03-22T04:03:35.359Z,100232.56
2019-03-22T04:06:06.671Z,100228.81
2019-03-22T04:08:38.096Z,100234.71
2019-03-22T04:11:09.442Z,100233.42
2019-03-22T04:13:40.817Z,100231.92
2019-03-22T04:16:12.089Z,100234.25
2019-03-22T04:18:43.365Z,100237.82
2019-03-22T04:21:14.583Z,100236.77
2019-03-22T04:23:45.987Z,100244.84
2019-03-22T04:26:17.292Z,100231.63
2019-03-22T04:28:48.629Z,100235.59
2019-03-22T04:31:19.993Z,100230.05
2019-03-22T04:33:51.422Z,100232.94
2019-03-22T04:36:22.881Z,100231.14
2019-03-22T04:38:54.255Z,100230.39
2019-03-22T04:41:25.655Z,100218.98
2019-03-22T04:43:57.063Z,100225.02
2019-03-22T04:46:28.403Z,100226.59
2019-03-22T04:48:59.648Z,100218.03
2019-03-22T04:51:30.935Z,100228.44
2019-03-22T04:54:02.318Z,100225.06
2019-03-22T04:56:33.723Z,100223.92
2019-03-22T04:59:05.784Z,100222.11
2019-03-22T05:01:37.238Z,100221.74
2019-03-22T05:04:08.577Z,100217.92
2019-03-22T05:06:41.568Z,100221.71
2019-03-22T05:09:12.955Z,100219.73
2019-03-22T05:11:44.328Z,100217.98
2019-03-22T05:14:15.982Z,100218.69
2019-03-22T05:16:47.454Z,100217.63
2019-03-22T05:19:18.952Z,100217.23
2019-03-22T05:21:50.474Z,100222.56
2019-03-22T05:24:22.108Z,100210.95
2019-03-22T05:26:54.344Z,100217.11
2019-03-22T05:29:30.832Z,100211.13
2019-03-22T05:32:02.335Z,100210.37
2019-03-22T05:34:33.713Z,100203.55
2019-03-22T05:37:05.179Z,100195.81
2019-03-22T05:39:36.516Z,100194.92
2019-03-22T05:42:07.783Z,100198.70
2019-03-22T05:44:39.322Z,100193.44
2019-03-22T05:47:11.637Z,100195.41
2019-03-22T05:49:42.961Z,100197.89
2019-03-22T05:52:14.270Z,100199.81
2019-03-22T05:54:45.639Z,100203.11
2019-03-22T05:57:17.031Z,100203.73
2019-03-22T05:59:48.365Z,100201.78
2019-03-22T06:02:19.682Z,100199.15
2019-03-22T06:04:51.221Z,100202.58
2019-03-22T06:07:22.787Z,100203.92
2019-03-22T06:09:54.178Z,100201.17
2019-03-22T06:12:25.467Z,100195.45
2019-03-22T06:14:56.778Z,100194.94
2019-03-22T06:17:28.241Z,100190.75
2019-03-22T06:20:00.523Z,100197.21
2019-03-22T06:22:32.118Z,100189.73
2019-03-22T06:25:03.470Z,100192.49
2019-03-22T06:27:34.745Z,100183.27
2019-03-22T06:30:10.329Z,100176.25
2019-03-22T06:32:41.708Z,100173.33
2019-03-22T06:35:13.003Z,100173.30
2019-03-22T06:37:44.343Z,100167.73
2019-03-22T06:40:15.700Z,100163.92
2019-03-22T06:42:48.190Z,100160.88
2019-03-22T06:45:19.488Z,100157.52
2019-03-22T06:47:50.887Z,100157.92
2019-03-22T06:50:25.289Z,100155.59
2019-03-22T06:52:56.630Z,100159.41
2019-03-22T06:55:27.903Z,100156.11
2019-03-22T06:57:59.298Z,100151.94
2019-03-22T07:00:30.553Z,100145.09
2019-03-22T07:03:01.936Z,100138.53
2019-03-22T07:05:33.343Z,100137.35
2019-03-22T07:08:04.759Z,100131.83
2019-03-22T07:10:36.556Z,100128.95
2019-03-22T07:13:07.949Z,100124.92
2019-03-22T07:15:39.515Z,100117.71
2019-03-22T07:18:12.803Z,100108.92
2019-03-22T07:20:44.060Z,100115.75
2019-03-22T07:23:15.453Z,100105.39
2019-03-22T07:25:46.791Z,100106.55
2019-03-22T07:28:18.177Z,100101.78
2019-03-22T07:30:49.576Z,100095.41
2019-03-22T07:33:20.958Z,100090.07
2019-03-22T07:35:52.518Z,100092.80
2019-03-22T07:38:23.940Z,100086.89
2019-03-22T07:40:55.193Z,100078.89
2019-03-22T07:43:26.581Z,100076.16
2019-03-22T07:45:57.991Z,100077.45
2019-03-22T07:48:29.467Z,100072.17
2019-03-22T07:51:00.833Z,100074.80
2019-03-22T07:53:32.141Z,100054.34
2019-03-22T07:56:03.531Z,100059.41
2019-03-22T07:58:34.858Z,100053.38
2019-03-22T08:01:06.855Z,100043.35
2019-03-22T08:03:37.488Z,100041.33
2019-03-22T08:06:08.662Z,100035.70
2019-03-22T08:08:41.610Z,100037.40
2019-03-22T08:11:12.933Z,100032.98
2019-03-22T08:13:44.371Z,100035.82
2019-03-22T08:16:15.760Z,100032.50
2019-03-22T08:18:47.134Z,100032.34
2019-03-22T08:21:18.639Z,100016.16
2019-03-22T08:23:50.038Z,100008.78
2019-03-22T08:26:21.493Z,99989.31
2019-03-22T08:28:52.929Z,99989.31
2019-03-22T08:31:25.934Z,99984.82
2019-03-22T08:33:57.461Z,99980.02
2019-03-22T08:36:29.024Z,99968.92
2019-03-22T08:39:00.465Z,99973.19
2019-03-22T08:41:33.387Z,99962.70
2019-03-22T08:44:04.683Z,99961.00
2019-03-22T08:46:37.289Z,99955.50
2019-03-22T08:49:09.628Z,99944.67
2019-03-22T08:51:41.239Z,99935.75
2019-03-22T08:54:12.669Z,99933.11
2019-03-22T08:56:44.050Z,99930.11
2019-03-22T08:59:15.474Z,99915.98
2019-03-22T09:01:46.933Z,99915.75
2019-03-22T09:04:18.357Z,99916.66
2019-03-22T09:06:49.924Z,99900.91
2019-03-22T09:09:21.320Z,99899.83
2019-03-22T09:11:52.677Z,99895.59
2019-03-22T09:14:24.085Z,99892.99
2019-03-22T09:16:55.493Z,99884.91
2019-03-22T09:19:26.996Z,99879.59
2019-03-22T09:21:59.592Z,99872.13
2019-03-22T09:24:39.139Z,99876.90
2019-03-22T09:27:04.061Z,99869.67
2019-03-22T09:29:35.416Z,99867.48
2019-03-22T09:32:06.853Z,99862.62
2019-03-22T09:34:38.298Z,99864.72
2019-03-22T09:37:09.740Z,99859.79
2019-03-22T09:39:41.100Z,99856.33
2019-03-22T09:42:12.517Z,99832.70
2019-03-22T09:44:45.119Z,99824.33
2019-03-22T09:47:17.019Z,99819.88
2019-03-22T09:49:51.128Z,99801.33
2019-03-22T09:52:21.518Z,99792.82
2019-03-22T09:54:54.063Z,99786.27
2019-03-22T09:57:25.512Z,99784.17
2019-03-22T09:59:56.841Z,99776.53
2019-03-22T10:02:28.076Z,99790.59
2019-03-22T10:04:59.478Z,99775.72
2019-03-22T10:07:32.028Z,99768.45
2019-03-22T10:10:04.119Z,99763.56
2019-03-22T10:12:35.497Z,99760.36
2019-03-22T10:15:07.088Z,99746.55
2019-03-22T10:17:38.394Z,99751.17
2019-03-22T10:20:09.838Z,99754.53
2019-03-22T10:22:41.207Z,99748.47
2019-03-22T10:25:12.690Z,99747.20
2019-03-22T10:27:44.031Z,99747.45
2019-03-22T10:30:16.972Z,99736.52
2019-03-22T10:32:48.341Z,99729.08
2019-03-22T10:35:26.019Z,99722.56
2019-03-22T10:38:00.324Z,99720.87
2019-03-22T10:40:25.994Z,99711.67
2019-03-22T10:42:57.310Z,99712.92
2019-03-22T10:45:28.726Z,99706.90
2019-03-22T10:48:00.093Z,99704.67
2019-03-22T10:50:31.476Z,99687.83
2019-03-22T10:53:02.770Z,99678.39
2019-03-22T10:55:35.660Z,99676.31
2019-03-22T10:58:20.215Z,99666.84
2019-03-22T11:00:40.332Z,99668.97
2019-03-22T11:03:11.706Z,99667.33
2019-03-22T11:05:43.219Z,99664.53
2019-03-22T11:08:14.656Z,99653.52
2019-03-22T11:10:46.026Z,99659.34
2019-03-22T11:13:18.433Z,99657.30
2019-03-22T11:15:49.930Z,99658.41
2019-03-22T11:18:21.358Z,99646.66
2019-03-22T11:20:52.706Z,99648.28
2019-03-22T11:23:24.098Z,99649.50
2019-03-22T11:26:03.847Z,99645.94
2019-03-22T11:28:28.532Z,99634.93
2019-03-22T11:31:04.606Z,99625.06
2019-03-22T11:33:32.984Z,99621.34
2019-03-22T11:36:04.361Z,99626.46
2019-03-22T11:38:35.774Z,99610.05
2019-03-22T11:41:07.177Z,99602.97
2019-03-22T11:43:38.620Z,99603.66
2019-03-22T11:46:09.956Z,99595.80
2019-03-22T11:48:41.427Z,99594.65
2019-03-22T11:51:12.849Z,99600.28
2019-03-22T11:53:44.223Z,99590.06
2019-03-22T11:56:15.544Z,99583.30
2019-03-22T11:58:47.041Z,99581.61
2019-03-22T12:01:20.381Z,99579.75
2019-03-22T12:03:51.558Z,99573.78
2019-03-22T12:06:22.796Z,99569.95
2019-03-22T12:08:54.032Z,99564.41
2019-03-22T12:11:25.348Z,99567.22
2019-03-22T12:13:56.684Z,99569.41
2019-03-22T12:16:28.016Z,99553.36
2019-03-22T12:19:00.519Z,99555.59
2019-03-22T12:21:31.810Z,99551.00
2019-03-22T12:24:03.244Z,99561.16
2019-03-22T12:26:34.684Z,99540.70
2019-03-22T12:29:06.080Z,99540.45
2019-03-22T12:31:37.420Z,99533.54
2019-03-22T12:34:08.810Z,99541.57
2019-03-22T12:36:40.187Z,99529.53
2019-03-22T12:39:11.429Z,99527.00
2019-03-22T12:41:42.855Z,99515.05
2019-03-22T12:44:14.251Z,99507.32
2019-03-22T12:46:45.569Z,99504.77
2019-03-22T12:49:17.014Z,99492.07
2019-03-22T12:51:48.384Z,99490.16
2019-03-22T12:54:19.804Z,99492.69
2019-03-22T12:56:51.307Z,99474.37
2019-03-22T12:59:22.572Z,99467.72
2019-03-22T13:01:53.979Z,99465.17
2019-03-22T13:04:25.336Z,99466.67
2019-03-22T13:06:56.716Z,99453.41
2019-03-22T13:09:28.060Z,99447.80
2019-03-22T13:11:59.369Z,99440.77
2019-03-22T13:14:30.737Z,99442.31
2019-03-22T13:17:02.091Z,99433.66
2019-03-22T13:19:34.851Z,99428.67
2019-03-22T13:22:06.300Z,99419.02
2019-03-22T13:24:37.690Z,99417.81
2019-03-22T13:27:09.040Z,99398.53
2019-03-22T13:29:40.399Z,99383.87
2019-03-22T13:32:11.852Z,99378.16
2019-03-22T13:34:43.206Z,99385.11
2019-03-22T13:37:14.651Z,99381.97
2019-03-22T13:39:46.188Z,99379.75
2019-03-22T13:42:17.596Z,99377.05
2019-03-22T13:44:48.957Z,99380.01
2019-03-22T13:47:20.338Z,99389.22
2019-03-22T13:49:51.878Z,99386.98
2019-03-22T13:52:24.860Z,99387.09
2019-03-22T13:54:56.229Z,99394.31
2019-03-22T13:57:27.522Z,99391.75
2019-03-22T13:59:58.858Z,99397.05
2019-03-22T14:02:30.248Z,99399.34
2019-03-22T14:05:01.664Z,99395.09
2019-03-22T14:07:34.172Z,99400.19
2019-03-22T14:10:07.559Z,99390.02
2019-03-22T14:12:38.990Z,99388.05
2019-03-22T14:15:10.386Z,99380.89
2019-03-22T14:17:41.649Z,99373.28
2019-03-22T14:20:13.449Z,99378.33
2019-03-22T14:22:44.775Z,99369.78
2019-03-22T14:25:16.046Z,99359.59
2019-03-22T14:27:47.484Z,99360.39
2019-03-22T14:30:18.828Z,99362.28
2019-03-22T14:32:50.150Z,99360.30
2019-03-22T14:35:23.901Z,99353.73
2019-03-22T14:37:55.250Z,99336.48
2019-03-22T14:40:26.570Z,99335.19
2019-03-22T14:42:57.915Z,99319.61
2019-03-22T14:45:29.291Z,99320.02
2019-03-22T14:48:00.660Z,99313.49
2019-03-22T14:50:31.979Z,99310.67
2019-03-22T14:53:03.519Z,99296.45
2019-03-22T14:55:35.092Z,99295.74
2019-03-22T14:58:06.407Z,99297.13
2019-03-22T15:00:37.715Z,99296.26
2019-03-22T15:03:24.566Z,99297.96
2019-03-22T15:05:56.331Z,99289.20
2019-03-22T15:08:28.891Z,99267.23
2019-03-22T15:11:00.271Z,99268.03
2019-03-22T15:13:33.172Z,99257.09
2019-03-22T15:16:06.197Z,99253.36
2019-03-22T15:18:45.173Z,99261.78
2019-03-22T15:21:21.111Z,99258.41
2019-03-22T15:24:03.119Z,99261.24
2019-03-22T15:26:31.129Z,99259.23
2019-03-22T15:29:13.153Z,99269.03
2019-03-22T15:32:02.289Z,99253.83
2019-03-22T15:34:38.259Z,99245.36
2019-03-22T15:37:11.109Z,99239.19
2019-03-22T15:39:55.750Z,99243.80
2019-03-22T15:42:27.154Z,99229.70
2019-03-22T15:44:58.589Z,99229.65
2019-03-22T15:47:30.103Z,99226.20
2019-03-22T15:50:02.454Z,99227.17
2019-03-22T15:52:33.815Z,99218.96
2019-03-22T15:55:08.403Z,99221.55
2019-03-22T15:57:39.714Z,99204.60
2019-03-22T16:00:16.651Z,99209.42
2019-03-22T16:02:47.917Z,99202.78
2019-03-22T16:05:19.315Z,99199.38
2019-03-22T16:07:50.735Z,99195.69
2019-03-22T16:10:22.141Z,99206.28
2019-03-22T16:12:54.083Z,99436.14
2019-03-22T16:15:25.476Z,99429.34
2019-03-22T16:17:56.705Z,99436.02
2019-03-22T16:20:27.989Z,99436.02
2019-03-22T16:22:59.461Z,99420.72
2019-03-22T16:25:30.700Z,99426.14
2019-03-22T16:28:02.128Z,99416.00
2019-03-22T16:30:33.405Z,99384.88
2019-03-22T16:33:04.568Z,99359.30
2019-03-22T16:35:35.850Z,99371.70
2019-03-22T16:38:07.135Z,99401.81
2019-03-22T16:40:38.502Z,99423.35
2019-03-22T16:43:09.736Z,99405.49
2019-03-22T16:45:41.959Z,99370.86
2019-03-22T16:48:13.248Z,99368.66
2019-03-22T16:50:44.477Z,99383.05
2019-03-22T16:53:15.911Z,99394.05
2019-03-22T16:55:47.235Z,99402.43
2019-03-22T16:58:18.656Z,99424.72
2019-03-22T17:00:50.191Z,99425.92
2019-03-22T17:03:24.115Z,99426.66
2019-03-22T17:05:55.547Z,99419.11
2019-03-22T17:08:26.892Z,99414.37
2019-03-22T17:10:58.160Z,99420.17
2019-03-22T17:13:29.368Z,99415.09
2019-03-22T17:16:02.045Z,99407.64
2019-03-22T17:18:33.514Z,99407.30
2019-03-22T17:21:04.767Z,99401.45
2019-03-22T17:23:35.983Z,99406.13
2019-03-22T17:26:07.370Z,99402.82
2019-03-22T17:28:38.606Z,99403.23
2019-03-22T17:31:09.893Z,99405.48
2019-03-22T17:33:41.095Z,99403.17
2019-03-22T17:36:12.390Z,99405.55
2019-03-22T17:38:43.678Z,99403.59
2019-03-22T17:41:14.888Z,99408.20
2019-03-22T17:43:46.184Z,99412.20
2019-03-22T17:46:17.310Z,99406.36
2019-03-22T17:48:48.541Z,99425.08
2019-03-22T17:51:19.870Z,99425.08
2019-03-22T17:53:51.080Z,99421.41
2019-03-22T17:56:22.263Z,99426.83
2019-03-22T17:58:53.505Z,99420.44
2019-03-22T18:01:24.664Z,99437.73
2019-03-22T18:03:55.864Z,99442.98
2019-03-22T18:06:27.058Z,99433.06
2019-03-22T18:08:58.281Z,99437.37
2019-03-22T18:11:29.599Z,99433.49
2019-03-22T18:14:00.832Z,99448.03
2019-03-22T18:16:32.118Z,99448.99
2019-03-22T18:19:04.644Z,99440.59
2019-03-22T18:21:35.790Z,99451.00
2019-03-22T18:24:07.035Z,99442.02
2019-03-22T18:26:38.251Z,99442.70
2019-03-22T18:29:09.464Z,99445.40
2019-03-22T18:31:40.708Z,99449.55
2019-03-22T18:34:12.001Z,99445.80
2019-03-22T18:36:43.266Z,99441.44
2019-03-22T18:39:14.401Z,99444.79
2019-03-22T18:41:45.532Z,99454.46
2019-03-22T18:44:16.839Z,99455.11
2019-03-22T18:46:49.303Z,99458.78
2019-03-22T18:49:20.616Z,99466.31
2019-03-22T18:51:51.897Z,99471.12
2019-03-22T18:54:23.035Z,99467.55
2019-03-22T18:56:54.274Z,99468.97
2019-03-22T18:59:25.557Z,99476.77
2019-03-22T19:01:56.861Z,99476.77
2019-03-22T19:04:28.025Z,99482.48
2019-03-22T19:06:59.395Z,99479.45
2019-03-22T19:09:30.547Z,99483.84
2019-03-22T19:12:01.846Z,99477.09
2019-03-22T19:14:33.087Z,99488.55
2019-03-22T19:17:04.378Z,99481.80
2019-03-22T19:19:36.799Z,99503.58
2019-03-22T19:22:07.934Z,99497.87
2019-03-22T19:24:39.333Z,99502.91
2019-03-22T19:27:10.685Z,99508.53
2019-03-22T19:29:41.941Z,99510.38
2019-03-22T19:32:13.928Z,99507.36
2019-03-22T19:34:53.921Z,99511.52
2019-03-22T19:37:17.323Z,99515.36
2019-03-22T19:39:48.537Z,99504.10
2019-03-22T19:42:19.820Z,99499.42
2019-03-22T19:44:51.142Z,99504.03
2019-03-22T19:47:22.399Z,99506.83
2019-03-22T19:49:53.619Z,99505.05
2019-03-22T19:52:26.136Z,99508.04
2019-03-22T19:54:57.459Z,99517.86
2019-03-22T19:57:28.791Z,99506.33
2019-03-22T20:00:00.019Z,99506.40
2019-03-22T20:02:31.281Z,99502.81
2019-03-22T20:05:04.938Z,99501.61
2019-03-22T20:07:35.492Z,99503.58
2019-03-22T20:10:09.838Z,99501.23
2019-03-22T20:12:41.097Z,99498.21
2019-03-22T20:15:12.349Z,99508.91
2019-03-22T20:17:43.684Z,99510.59
2019-03-22T20:20:15.960Z,99505.97
2019-03-22T20:22:47.306Z,99505.23
2019-03-22T20:25:18.650Z,99506.28
2019-03-22T20:27:49.894Z,99505.96
2019-03-22T20:30:21.462Z,99507.64
2019-03-22T20:32:52.825Z,99502.64
2019-03-22T20:35:24.196Z,99499.14
2019-03-22T20:37:55.582Z,99494.70
2019-03-22T20:40:26.965Z,99502.53
2019-03-22T20:42:58.416Z,99499.17
2019-03-22T20:45:29.733Z,99500.55
2019-03-22T20:48:01.091Z,99502.36
2019-03-22T20:50:36.133Z,99497.36
2019-03-22T20:53:05.526Z,99491.52
2019-03-22T20:55:36.738Z,99498.66
2019-03-22T20:58:08.070Z,99505.78
2019-03-22T21:00:39.285Z,99504.82
2019-03-22T21:03:10.644Z,99503.16
2019-03-22T21:05:44.679Z,99502.38
2019-03-22T21:08:15.942Z,99498.97
2019-03-22T21:10:47.349Z,99496.59
2019-03-22T21:13:18.811Z,99499.77
2019-03-22T21:15:50.135Z,99499.23
2019-03-22T21:18:21.472Z,99496.74
2019-03-22T21:20:52.896Z,99496.41
2019-03-22T21:23:24.228Z,99502.42
2019-03-22T21:25:55.417Z,99492.06
2019-03-22T21:28:26.687Z,99483.17
2019-03-22T21:30:57.985Z,99485.42
2019-03-22T21:33:29.300Z,99477.42
2019-03-22T21:36:01.500Z,99484.17
2019-03-22T21:38:32.886Z,99484.50
2019-03-22T21:41:04.293Z,99480.09
2019-03-22T21:43:35.546Z,99479.82
2019-03-22T21:46:06.807Z,99481.95
2019-03-22T21:48:38.065Z,99487.06
2019-03-22T21:51:09.286Z,99482.22
2019-03-22T21:53:40.507Z,99488.18
2019-03-22T21:56:11.820Z,99481.38
2019-03-22T21:58:43.065Z,99478.92
2019-03-22T22:01:15.327Z,99486.27
2019-03-22T22:03:46.587Z,99483.60
2019-03-22T22:06:17.873Z,99485.52
2019-03-22T22:08:49.243Z,99479.51
2019-03-22T22:11:20.392Z,99483.60
2019-03-22T22:13:51.685Z,99473.50
2019-03-22T22:16:22.894Z,99484.52
2019-03-22T22:18:54.151Z,99474.25
2019-03-22T22:21:25.233Z,99475.09
2019-03-22T22:23:56.694Z,99467.44
2019-03-22T22:26:27.870Z,99463.07
2019-03-22T22:28:59.145Z,99461.80
2019-03-22T22:31:31.377Z,99465.94
2019-03-22T22:34:02.659Z,99463.91
2019-03-22T22:36:33.869Z,99462.64
2019-03-22T22:39:06.232Z,99456.31
2019-03-22T22:41:39.046Z,99450.95
2019-03-22T22:44:10.278Z,99457.47
2019-03-22T22:46:41.478Z,99451.64
2019-03-22T22:49:12.689Z,99453.44
2019-03-22T22:51:44.149Z,99453.77
2019-03-22T22:54:15.360Z,99457.23
2019-03-22T22:56:46.582Z,99456.95
2019-03-22T22:59:17.940Z,99460.77
2019-03-22T23:01:49.269Z,99447.02
2019-03-22T23:04:20.568Z,99448.81
2019-03-22T23:06:51.827Z,99448.91
2019-03-22T23:09:23.051Z,99436.53
2019-03-22T23:11:54.278Z,99437.76
2019-03-22T23:14:27.523Z,99436.49
2019-03-22T23:16:58.799Z,99437.13
2019-03-22T23:19:29.923Z,99437.13
2019-03-22T23:22:01.181Z,99434.36
2019-03-22T23:24:32.503Z,99435.74
2019-03-22T23:27:03.812Z,99439.02
2019-03-22T23:29:35.048Z,99435.41
2019-03-22T23:32:06.429Z,99425.75
2019-03-22T23:34:37.629Z,99433.09
2019-03-22T23:37:08.717Z,99428.98
2019-03-22T23:39:40.002Z,99425.36
2019-03-22T23:42:11.254Z,99421.44
2019-03-22T23:44:42.455Z,99420.81
2019-03-22T23:47:13.798Z,99419.09
2019-03-22T23:49:45.085Z,99422.78
2019-03-22T23:52:16.394Z,99417.14
2019-03-22T23:54:47.666Z,99411.61
2019-03-22T23:57:18.922Z,99411.52
2019-03-22T23:59:50.117Z,99404.39
